Details From SPRU - CAPITAN CARLOS MARTINEZ DE PINILLOS
To SECU - MARISCAL LAMAR
Flight Number -
Tags generated
Created
Modified
Stats Distance 320 nm / 593 km
Max Altitude 24,500 ft / 7,468 m
Waypoints 4
Social Downloads 1
Likes 0
Share VATSIM

Download

Looking for another format? Having issues loading an existing format? Contact us
Advertisement - Login to hide

Notes

Basic altitude profile: - Ascent Rate: 2500ft/min - Ascent Speed: 250kts - Cruise Altitude: 210ft - Cruise Speed: 350kts - Descent Rate: 1500ft/min - Descent Speed: 250kts Options: - Use NATs: yes - Use PACOTS: yes - Use low airways: yes - Use high airways: yes

Route

SPRU TRU UL780 VAKUD SECU

ID Type Via Altitude Latitude Longitude Leg Dist Tot Dist Heading (true) Name
O SPRU APT - 0 ft / 0 m -8.08141˚ -79.10876˚ - 0 nm - CAPITAN CARLOS MARTINEZ DE PINILLOS
TRU VOR - 100 ft / 30 m -8.08722˚ -79.11222˚ 0 nm 0 nm 211° / 211° TRUJILLO VOR-DME
VAKUD FIX UL780 (AWY-HI) 24,500 ft / 7,468 m -4.50333˚ -79.56667˚ 216 nm 217 nm 353° / 353° -
O SECU APT - 0 ft / 0 m -2.88947˚ -78.98440˚ 103 nm 320 nm 20° / 20° MARISCAL LAMAR

Altitude Profile

Advertisement - Login to hide

Weather


0- 5 10 15 20 25 30 35+ Temperature / ° C

Clouds and Precipitation
Forecast for 2018-05-24 12:00 UTC. Updated 2 hours ago

Ground ~20,000 ft ~40,000 ft Winds

SPRU

Details ICAO SPRU (TRU)
Name CAPITAN CARLOS MARTINEZ DE PINILLOS
Region Peru
Timezone America/Lima (UTC-5.0)
Stats Elevation 106 ft / 32 m (AMSL)
Location -8.081411° -79.108762°
Runways 1
Magnetic Variation 1.436° W

METAR

SPRU 241230Z 13006KT 6000 BKN003 17/16 Q1015

Decode

TAF

TAF SPRU 241100Z 2412/2512 12004KT 7000 BKN010 TX20/2419Z TN16/2510Z TEMPO 2412/2414 4000 BR OVC003 FM241800 17010KT 9999 FEW010 SCT150 FM250300 14008KT 7000 BKN007

Decode

Departure Runways

ID Width Length Bearing (true) Bearing (mag) Surface Threshold Offset Overrun Length
02 145 ft / 44 m 9,972 ft / 3,040 m 16.81° 18.25° Asphalt 0 ft / 0 m 210 ft / 64 m
20 145 ft / 44 m 9,972 ft / 3,040 m 196.81° 198.25° Asphalt 0 ft / 0 m 205 ft / 62 m

SECU

Details ICAO SECU (CUE)
Name MARISCAL LAMAR
Region Equador
Timezone America/Guayaquil (UTC-5.0)
Stats Elevation 8,306 ft / 2,532 m (AMSL)
Location -2.889468° -78.984398°
Runways 1
Magnetic Variation 2.688° W

METAR

SECU 241234Z 10002KT 5000 SCT003 OVC013 13/13 Q1028

Decode

TAF

Not found

Destination Runways

ID Width Length Bearing (true) Bearing (mag) Surface Threshold Offset Overrun Length
05 118 ft / 36 m 6,240 ft / 1,902 m 51.98° 54.67° Asphalt 0 ft / 0 m 141 ft / 43 m
23 118 ft / 36 m 6,240 ft / 1,902 m 231.97° 234.66° Asphalt 0 ft / 0 m 0 ft / 0 m

Approach Navaids

Runway Type Ident Frequency Range Bearing (true) Bearing (mag) Slope Elevation
23 Localiser ILC 110.90 MHz 18 nm / 33 km 232.25° 234.94° - 8,284 ft / 2,525 m (AMSL)
23 Glidescope ILC 110.90 MHz 10 nm / 19 km 231.97° 234.66° 3.20° 8,284 ft / 2,525 m (AMSL)
23 DME ILC 110.90 MHz 18 nm / 33 km - - - 8,306 ft / 2,532 m (AMSL)

Popular Alternatives